Winamac, IN

8:25 AM EST on March 01, 2015 (GMT -0500)
Jasper County | Change Station
CLOSE
Current Station
Airport
Location: Rensselaer,
Elevation: 696 ft
Nearby Weather Stations

Elev 696 ft 40.95 °N, 87.18 °W | Updated 10 minutes ago

Snow
Snow
21 °F
Feels Like 21 °F
N
0
Wind Variable Wind from North

Today
High -- | Low -- °F
--% Chance of Precip.
Yesterday
High -- | Low -- °F
Precip. -- in
7:21 AM 6:37 PM
Waxing Gibbous, 85% visible
Pressure 30.38 in
Visibility 1.8 miles
Clouds Overcast 1300 ft
Dew Point 21 °F
Humidity 100%
Rainfall 0.00 in
Snow Depth Not available.
UV 0 out of 12
Pollen .40 out of 12
Air Quality Not available.
Flu Activity Not available.
METAR KRZL 011315Z AUTO 00000KT 1 3/4SM -SN OVC013 M06/M06 A3038 RMK AO2

More Conditions Fewer Conditions

Pressure 30.38 in
Visibility 1.8 miles
Clouds Overcast 1300 ft
Dew Point 21 °F
Humidity 100%
Rainfall 0.00 in
Snow Depth Not available.
UV 0 out of 12
Pollen .40 out of 12
Air Quality Not available.
Flu Activity Not available.
METAR KRZL 011315Z AUTO 00000KT 1 3/4SM -SN OVC013 M06/M06 A3038 RMK AO2

More Conditions Fewer Conditions

10-Day Weather Forecast

Almanac

Astronomy

Mar. 01, 2015 Rise Set
Actual Time
Civil Twilight
Nautical Twilight
Astronomical Twilight
Moon
Length of Visible Light
Length of Day
Tomorrow will be .
, % of the Moon is Illuminated

Today's Extremes

State Highs State Lows

Community

WunderPhotos

Upload Photos

1,801,380 photos uploaded!

WunderBlogs® & News

Nearby

Air Quality

  Air Quality AQ Index Pollutant
Not available.

Snow Depth

Station Depth Elevation

Earthquake Activity

City Distance Mag. Time & Date
Minimum magnitude displayed is 2.5.

Coastal Water Temperatures

Place Temperature

Nearby Weather Stations